Fdny M-3 — WDF9250 — position and weather

sailwx.info

Track history (hours):
 
Tides and Currents Weather Stations Pressure Air Temp Water Temp Dewpoint Dewpoint Depression Visibility Wind Speed Wind Dir Waves Ship Positions

Fdny M-3

Owner: NEW YORK CITY FIRE DEPT, BROOKLYN, NY. More information available from US FCC via Universal Licensing System.

Last reported at 2017-Oct-17 21:56 UTC. Time now 2017-Oct-18 12:59 UTC.
Position N 40°34' W 073°57'.

Length 11 m.

Type: Law enforcement. MMSI: 367503220.

Date/timePositionNaut miles runAvg speedWind from/ knotsBaromVisibWave heightAir tempDewpointWater temp
2017-Oct-17 21:56N 40°34' W 073°57'3 7.4
2017-Oct-17 21:30N 40°32' W 074°00'1110.1
2017-Oct-17 20:28N 40°36' W 073°47'510.4
2017-Oct-17 20:00N 40°37' W 073°54'1 1.6
2017-Oct-17 19:24N 40°36' W 073°54'0 0.7
2017-Oct-17 18:56N 40°36' W 073°54'2 0.1
2017-Oct-16 16:45N 40°38' W 073°52'415.4
2017-Oct-16 16:30N 40°34' W 073°54'5 0.2
2017-Oct-15 18:28N 40°36' W 073°48'4 8.0
2017-Oct-15 17:59N 40°35' W 073°53'1 0.0
2017-Oct-14 18:49N 40°34' W 073°55'5 4.1
2017-Oct-14 17:34N 40°39' W 073°51'427.1
2017-Oct-14 17:25N 40°35' W 073°53'921.8
2017-Oct-14 17:00N 40°41' W 074°02'2 3.8
2017-Oct-14 16:30N 40°39' W 074°02'8 0.3
2017-Oct-13 16:43N 40°35' W 073°52'4 3.3
2017-Oct-13 15:33N 40°39' W 073°50'314.4
2017-Oct-13 15:20N 40°35' W 073°49'5 0.3
2017-Oct-12 20:36N 40°35' W 073°56'2 3.3
2017-Oct-12 19:54N 40°35' W 073°53'9 0.2
2017-Oct-10 15:59N 40°42' W 073°58'11 3.7
2017-Oct-10 12:56N 40°49' W 073°47'1126.1
2017-Oct-10 12:30N 40°42' W 073°59'  
Track history (hours):
 
Tides and Currents Weather Stations Pressure Air Temp Water Temp Dewpoint Dewpoint Depression Visibility Wind Speed Wind Dir Waves Ship Positions

Fdny M-3

Owner: NEW YORK CITY FIRE DEPT, BROOKLYN, NY. More information available from US FCC via Universal Licensing System.

Last reported at 2017-Oct-17 21:56 UTC. Time now 2017-Oct-18 12:59 UTC.
Position N 40°34' W 073°57'.

Length 11 m.

Type: Law enforcement. MMSI: 367503220.

Date/timePositionNaut miles runAvg speedWind from/ knotsBaromVisibWave heightAir tempDewpointWater temp
2017-Oct-17 21:56N 40°34' W 073°57'3 7.4
2017-Oct-17 21:30N 40°32' W 074°00'1110.1
2017-Oct-17 20:28N 40°36' W 073°47'510.4
2017-Oct-17 20:00N 40°37' W 073°54'1 1.6
2017-Oct-17 19:24N 40°36' W 073°54'0 0.7
2017-Oct-17 18:56N 40°36' W 073°54'2 0.1
2017-Oct-16 16:45N 40°38' W 073°52'415.4
2017-Oct-16 16:30N 40°34' W 073°54'5 0.2
2017-Oct-15 18:28N 40°36' W 073°48'4 8.0
2017-Oct-15 17:59N 40°35' W 073°53'1 0.0
2017-Oct-14 18:49N 40°34' W 073°55'5 4.1
2017-Oct-14 17:34N 40°39' W 073°51'427.1
2017-Oct-14 17:25N 40°35' W 073°53'921.8
2017-Oct-14 17:00N 40°41' W 074°02'2 3.8
2017-Oct-14 16:30N 40°39' W 074°02'8 0.3
2017-Oct-13 16:43N 40°35' W 073°52'4 3.3
2017-Oct-13 15:33N 40°39' W 073°50'314.4
2017-Oct-13 15:20N 40°35' W 073°49'5 0.3
2017-Oct-12 20:36N 40°35' W 073°56'2 3.3
2017-Oct-12 19:54N 40°35' W 073°53'9 0.2
2017-Oct-10 15:59N 40°42' W 073°58'11 3.7
2017-Oct-10 12:56N 40°49' W 073°47'1126.1
2017-Oct-10 12:30N 40°42' W 073°59'  

Dump ship's entire track history